Nieuw Amsterdam — PBWQ — position and weather

sailwx.info

Track history (hours):
 
Tides and Currents Weather Stations Pressure Air Temp Water Temp Dewpoint Dewpoint Depression Visibility Wind Speed Wind Dir Waves Ship Positions

Nieuw Amsterdam

Last reported at 2019-Jul-22 11:00 UTC. Time now 2019-Jul-22 14:34 UTC.
Position N 55°36' W 134°18'.

Length 285 m; draft 8 m.

Type: Passenger vessel. MMSI: 246648000.

Wind from 360 at 12 knots

Barometer 1016.8 mb
Air temperature 13.4 ° C
Visibility: greater than 10.8 NM
Water temperature 18.3 ° C

Date/timePositionNaut miles runAvg speedWind from/ knotsBaromVisibWave heightAir tempDewpointWater temp
2019-Jul-22 11:00N 55°36' W 134°18'6619.6 360 / 121016.810.8 13.4 18.3
2019-Jul-22 07:38N 54°44' W 133°08'319.7
2019-Jul-22 07:30N 54°42' W 133°04'1019.7
2019-Jul-22 07:00N 54°35' W 132°52'1020.0
2019-Jul-22 06:30N 54°29' W 132°39'1019.6
2019-Jul-22 06:00N 54°27' W 132°23'1019.7
2019-Jul-22 05:30N 54°27' W 132°06'1020.0
2019-Jul-22 05:00N 54°26' W 131°49'1019.8
2019-Jul-22 04:30N 54°26' W 131°32'1020.2
2019-Jul-22 04:00N 54°25' W 131°14'3280.5
2019-Jul-22 04:00N 54°24' W 131°18'1122.8 320 / 31017.410.8 15.5 18.4
2019-Jul-22 03:30N 54°21' W 130°60'611.2
2019-Jul-22 03:00N 54°15' W 131°02'1020.1
2019-Jul-22 02:30N 54°05' W 131°01'1020.5
2019-Jul-22 02:00N 53°55' W 130°56'1020.4
2019-Jul-22 01:31N 53°48' W 130°44'1020.7
2019-Jul-22 01:01N 53°41' W 130°31'1121.1
2019-Jul-22 00:30N 53°35' W 130°16'3824.9
2019-Jul-21 23:00N 53°06' W 129°36'711.9 080 / 81017.710.8 14.9 17.5
2019-Jul-21 22:24N 53°00' W 129°29'921.6
2019-Jul-21 22:00N 52°54' W 129°19'1021.5
2019-Jul-21 21:31N 52°46' W 129°08'1222.0
2019-Jul-21 20:59N 52°38' W 128°54'1021.0
2019-Jul-21 20:31N 52°28' W 128°51'1121.3
2019-Jul-21 20:00N 52°17' W 128°49'1021.0
2019-Jul-21 19:31N 52°07' W 128°45'1121.5
2019-Jul-21 19:01N 51°57' W 128°42'1121.3
2019-Jul-21 18:30N 51°47' W 128°37'1121.3
2019-Jul-21 18:01N 51°36' W 128°32'1121.1
2019-Jul-21 17:31N 51°26' W 128°33'1019.3
2019-Jul-21 17:01N 51°16' W 128°28'1121.6
2019-Jul-21 16:31N 51°10' W 128°14'1121.4
2019-Jul-21 16:01N 51°04' W 127°60'1121.7
2019-Jul-21 15:31N 50°58' W 127°46'1121.2
2019-Jul-21 15:00N 50°52' W 127°33'1221.9
2019-Jul-21 14:29N 50°46' W 127°16'1735.9
2019-Jul-21 14:00N 50°36' W 126°54'7181.0 150 / 21020.7 5.4 15.0 18.0
2019-Jul-21 13:57N 50°42' W 126°59'1919.9
2019-Jul-21 13:00N 50°30' W 126°36'3218.7 050 / 31020.8 5.4 11.6 17.0
2019-Jul-21 11:17N 50°23' W 125°47'919.0
2019-Jul-21 10:50N 50°22' W 125°34'616.3
2019-Jul-21 10:28N 50°20' W 125°25'817.3
2019-Jul-21 10:00N 50°12' W 125°22'612.7
2019-Jul-21 09:30N 50°06' W 125°18'713.4
2019-Jul-21 09:00N 50°00' W 125°13'510.8
2019-Jul-21 08:30N 49°56' W 125°07'510.6
2019-Jul-21 08:00N 49°53' W 125°01'510.4
2019-Jul-21 07:30N 49°49' W 124°55'510.5
2019-Jul-21 07:00N 49°45' W 124°50'510.6
2019-Jul-21 06:30N 49°42' W 124°44'510.5
2019-Jul-21 06:00N 49°38' W 124°39'510.6
2019-Jul-21 05:30N 49°33' W 124°34'510.5
2019-Jul-21 05:00N 49°29' W 124°29'510.4
2019-Jul-21 04:30N 49°27' W 124°22'510.4
2019-Jul-21 04:00N 49°24' W 124°15'510.2
2019-Jul-21 03:30N 49°23' W 124°07'510.4
2019-Jul-21 03:00N 49°22' W 123°59'510.3
2019-Jul-21 02:30N 49°21' W 123°51'510.2
2019-Jul-21 02:00N 49°20' W 123°44'510.5
2019-Jul-21 01:30N 49°19' W 123°36'510.6
2019-Jul-21 01:00N 49°19' W 123°28'510.6
2019-Jul-21 00:30N 49°19' W 123°19'510.9
2019-Jul-21 00:00N 49°19' W 123°11'3 6.8
2019-Jul-20 23:30N 49°17' W 123°07'0 0.1
2019-Jul-20 22:58N 49°17' W 123°07'0 0.0
2019-Jul-20 22:28N 49°17' W 123°07'0 0.0
2019-Jul-20 21:58N 49°17' W 123°07'0 0.0
2019-Jul-20 21:25N 49°17' W 123°07'0 0.0
2019-Jul-20 20:58N 49°17' W 123°07'0 0.0
2019-Jul-20 20:28N 49°17' W 123°07'0 0.0
2019-Jul-20 19:58N 49°17' W 123°07'0 0.0
2019-Jul-20 19:28N 49°17' W 123°07'0 0.0
2019-Jul-20 18:58N 49°17' W 123°07'0 0.0
2019-Jul-20 18:28N 49°17' W 123°07'0 0.0
2019-Jul-20 17:58N 49°17' W 123°07'0 0.0
2019-Jul-20 17:28N 49°17' W 123°07'0 0.0
2019-Jul-20 16:58N 49°17' W 123°07'0 0.0
2019-Jul-20 16:29N 49°17' W 123°07'0 0.0
2019-Jul-20 15:58N 49°17' W 123°07'0 0.0
2019-Jul-20 15:28N 49°17' W 123°07'0 0.0
2019-Jul-20 15:00N 49°17' W 123°07'0 0.0
2019-Jul-20 14:27N 49°17' W 123°07'0 0.0
2019-Jul-20 14:00N 49°17' W 123°07'0 1.0
2019-Jul-20 13:30N 49°18' W 123°06'4 8.3
2019-Jul-20 13:00N 49°19' W 123°12'510.2
2019-Jul-20 12:30N 49°18' W 123°20'510.0
2019-Jul-20 12:00N 49°19' W 123°28'7451.1
2019-Jul-20 12:00N 49°18' W 123°18'1123.5 030 / 101023.7 5.4 15.0 20.0
2019-Jul-20 11:30N 49°19' W 123°35'5 9.7
2019-Jul-20 11:00N 49°19' W 123°43'5 9.7
2019-Jul-20 10:30N 49°20' W 123°50'5 9.7
2019-Jul-20 10:00N 49°22' W 123°57'5 9.7
2019-Jul-20 09:30N 49°23' W 124°05'5 9.7
2019-Jul-20 09:00N 49°24' W 124°12'5 9.8
2019-Jul-20 08:30N 49°26' W 124°19'5 9.8
2019-Jul-20 08:00N 49°28' W 124°26'5 9.7
2019-Jul-20 07:30N 49°31' W 124°31'5 9.7
2019-Jul-20 07:00N 49°35' W 124°36'5 9.8
2019-Jul-20 06:30N 49°39' W 124°41'5 9.8
2019-Jul-20 06:00N 49°42' W 124°46'5 9.8
2019-Jul-20 05:30N 49°46' W 124°51'5 9.7
2019-Jul-20 05:00N 49°49' W 124°57'5 9.8
2019-Jul-20 04:30N 49°53' W 125°02'510.3
2019-Jul-20 04:00N 49°56' W 125°08'611.9
2019-Jul-20 03:30N 50°01' W 125°13'612.9
2019-Jul-20 03:00N 50°07' W 125°19'612.8
2019-Jul-20 02:31N 50°13' W 125°22'815.3
2019-Jul-20 02:01N 50°20' W 125°26'8115.7
2019-Jul-19 20:51N 50°48' W 127°25'719.5
2019-Jul-19 20:30N 50°52' W 127°33'918.5
2019-Jul-19 20:00N 50°57' W 127°45'713.1
2019-Jul-19 19:30N 51°01' W 127°54'918.9
2019-Jul-19 19:00N 51°06' W 128°06'918.4
2019-Jul-19 18:31N 51°12' W 128°18'918.4
2019-Jul-19 18:00N 51°17' W 128°30'918.7
2019-Jul-19 17:31N 51°23' W 128°42'918.3
2019-Jul-19 17:00N 51°29' W 128°53'816.5
2019-Jul-19 16:30N 51°36' W 129°01'815.9
2019-Jul-19 16:00N 51°42' W 129°08'168.3
2019-Jul-19 16:00N 51°42' W 129°06'1021.5 150 / 81024.010.8 15.5 18.0
2019-Jul-19 15:30N 51°50' W 129°16'1019.1
2019-Jul-19 15:01N 51°58' W 129°25'4216.9
2019-Jul-19 15:00N 52°00' W 129°30'714.4 110 / 81023.510.8 14.0 18.0
2019-Jul-19 14:30N 52°07' W 129°34'7919.6
2019-Jul-19 10:28N 53°16' W 130°38'919.4
2019-Jul-19 10:00N 53°23' W 130°45'1018.6
2019-Jul-19 09:27N 53°33' W 130°51'818.9
2019-Jul-19 09:01N 53°41' W 130°54'918.6
2019-Jul-19 08:30N 53°50' W 130°57'918.8
2019-Jul-19 08:00N 53°60' W 130°59'1019.3
2019-Jul-19 07:30N 54°09' W 131°01'1019.3
2019-Jul-19 07:00N 54°19' W 131°04'918.6
2019-Jul-19 06:30N 54°27' W 131°11'917.0
2019-Jul-19 06:00N 54°36' W 131°12'516.8 250 / 111017.210.8 14.1 18.5
2019-Jul-19 05:41N 54°41' W 131°14'718.6
2019-Jul-19 05:19N 54°48' W 131°11'2118.3
2019-Jul-19 04:11N 55°08' W 131°10'168 7.9
2019-Jul-18 07:00N 56°24' W 135°36'2120.6 300 / 121003.8 5.4 13.1 18.1
2019-Jul-18 06:00N 56°42' W 135°54'1615.5 290 / 101003.1 5.4 14.1 18.5
2019-Jul-18 05:00N 56°54' W 136°12'8418.4 290 / 101002.510.8 14.1 16.8
2019-Jul-18 00:26N 58°18' W 136°17'717.2
2019-Jul-18 00:01N 58°20' W 136°04'713.0
2019-Jul-17 23:30N 58°26' W 135°59'510.3
2019-Jul-17 23:00N 58°31' W 136°04'714.3
2019-Jul-17 22:31N 58°38' W 136°06'816.3
2019-Jul-17 22:01N 58°44' W 136°17'816.3
2019-Jul-17 21:31N 58°49' W 136°29'5 1.0
2019-Jul-17 16:07N 58°46' W 136°21'317.2
2019-Jul-17 15:57N 58°44' W 136°16'717.0
2019-Jul-17 15:30N 58°38' W 136°07'714.7
2019-Jul-17 15:00N 58°31' W 136°04'5 9.3
2019-Jul-17 14:30N 58°27' W 136°01'4 8.4
2019-Jul-17 14:01N 58°23' W 135°57'5 9.8
2019-Jul-17 13:30N 58°19' W 135°52'713.0
2019-Jul-17 13:00N 58°17' W 135°40'712.8
2019-Jul-17 12:29N 58°15' W 135°28'917.9
2019-Jul-17 12:00N 58°12' W 135°12'24 8.1 300 / 101000.0 13.2 16.6
2019-Jul-17 09:00N 58°36' W 135°06'104 4.7 340 / 111002.2 14.4 17.0
2019-Jul-16 11:00N 56°54' W 134°24'109 3.9 140 / 101012.5 14.8 18.2
2019-Jul-15 07:00N 55°06' W 133°54'1818.3 220 / 41019.010.8 14.6 17.9
2019-Jul-15 06:00N 54°54' W 133°30'1818.3 300 / 41018.910.8 13.7 16.5
2019-Jul-15 05:00N 54°42' W 133°06'1615.9 270 / 51018.610.8 15.0 17.6
2019-Jul-15 04:00N 54°30' W 132°48'1515.2 320 / 91018.610.8 15.3 18.7
2019-Jul-15 03:00N 54°24' W 132°24'2516.9 330 / 91018.610.8 15.9 18.5
2019-Jul-15 01:32N 54°24' W 131°42'018.2
2019-Jul-15 01:30N 54°24' W 131°41'916.8
2019-Jul-15 00:59N 54°22' W 131°26'816.3
2019-Jul-15 00:30N 54°21' W 131°13'816.7
2019-Jul-15 00:00N 54°20' W 130°59'713.4
2019-Jul-14 23:30N 54°13' W 131°02'1019.8
2019-Jul-14 23:00N 54°03' W 131°00'918.8
2019-Jul-14 22:31N 53°55' W 130°54'1019.3
2019-Jul-14 22:00N 53°48' W 130°42'017.3
2019-Jul-14 22:00N 53°48' W 130°42'919.4 180 / 91018.810.8 16.3 18.2
2019-Jul-14 21:30N 53°41' W 130°31'1019.6
2019-Jul-14 21:00N 53°36' W 130°17'6719.6
2019-Jul-14 17:34N 52°44' W 129°05'220.9
2019-Jul-14 17:29N 52°43' W 129°03'1019.7
2019-Jul-14 17:00N 52°36' W 128°53'1019.7
2019-Jul-14 16:30N 52°26' W 128°51'1019.8
2019-Jul-14 16:01N 52°16' W 128°48'1019.7
2019-Jul-14 15:30N 52°06' W 128°45'1020.2
2019-Jul-14 15:00N 51°57' W 128°42'1020.0
2019-Jul-14 14:30N 51°47' W 128°38'1019.8
2019-Jul-14 14:00N 51°38' W 128°32'1019.7
2019-Jul-14 13:30N 51°28' W 128°33'1019.0
2019-Jul-14 13:00N 51°18' W 128°32'1020.0
2019-Jul-14 12:30N 51°12' W 128°19'1020.2
2019-Jul-14 12:00N 51°07' W 128°06'1019.8
2019-Jul-14 11:30N 51°01' W 127°53'1019.7
2019-Jul-14 11:00N 50°55' W 127°40'1020.7
2019-Jul-14 10:30N 50°50' W 127°26'1020.4
2019-Jul-14 10:00N 50°46' W 127°12'1020.3
2019-Jul-14 09:30N 50°42' W 126°57'4816.8
2019-Jul-14 06:39N 50°23' W 125°48'1317.2
2019-Jul-14 05:53N 50°20' W 125°27'513.7
2019-Jul-14 05:30N 50°16' W 125°23'816.9
2019-Jul-14 05:00N 50°08' W 125°21'815.0
2019-Jul-14 04:30N 50°02' W 125°13'917.1
2019-Jul-14 04:00N 49°55' W 125°06'1121.3
2019-Jul-14 03:30N 49°47' W 124°54'1121.3
2019-Jul-14 03:00N 49°39' W 124°43'1121.2
2019-Jul-14 02:31N 49°32' W 124°32'1121.2
2019-Jul-14 02:01N 49°26' W 124°18'1121.6
2019-Jul-14 01:31N 49°22' W 124°02'1121.7
2019-Jul-14 01:01N 49°20' W 123°46'1121.7
2019-Jul-14 00:30N 49°19' W 123°29'1121.4
2019-Jul-14 00:00N 49°19' W 123°13'5 9.1
2019-Jul-13 23:30N 49°17' W 123°07'0 0.5
2019-Jul-13 22:58N 49°17' W 123°07'0 0.0
2019-Jul-13 22:30N 49°17' W 123°07'0 0.0
2019-Jul-13 21:58N 49°17' W 123°07'0 0.0
2019-Jul-13 21:28N 49°17' W 123°07'0 0.0
2019-Jul-13 20:43N 49°17' W 123°07'0 0.0
2019-Jul-13 20:29N 49°17' W 123°07'0 0.0
2019-Jul-13 20:00N 49°17' W 123°07'0 0.0
2019-Jul-13 19:28N 49°17' W 123°07'0 0.0
2019-Jul-13 17:57N 49°17' W 123°07'0 0.0
2019-Jul-13 17:24N 49°17' W 123°07'0 0.0
2019-Jul-13 16:48N 49°17' W 123°07'0 0.0
2019-Jul-13 16:24N 49°17' W 123°07'0 0.0
2019-Jul-13 14:32N 49°17' W 123°07'0 0.0
2019-Jul-13 14:29N 49°17' W 123°07'0 0.0
2019-Jul-13 14:01N 49°17' W 123°07'1 2.4
2019-Jul-13 13:30N 49°18' W 123°07'3 6.8
2019-Jul-13 13:01N 49°19' W 123°13'611.8
2019-Jul-13 12:31N 49°19' W 123°22'612.0
2019-Jul-13 12:01N 49°18' W 123°31'510.8
2019-Jul-13 11:31N 49°18' W 123°39'510.5
2019-Jul-13 11:01N 49°19' W 123°47'510.6
2019-Jul-13 10:30N 49°20' W 123°55'510.5
2019-Jul-13 10:01N 49°22' W 124°03'4249.8
2019-Jul-13 10:00N 49°18' W 124°00'917.9 300 / 101014.6 17.8 19.3
2019-Jul-13 09:31N 49°23' W 124°10'510.5
2019-Jul-13 09:00N 49°25' W 124°18'510.5
2019-Jul-13 08:30N 49°27' W 124°25'510.4
2019-Jul-13 08:00N 49°31' W 124°31'510.4
2019-Jul-13 07:31N 49°35' W 124°37'510.6
2019-Jul-13 07:00N 49°38' W 124°43'510.6
2019-Jul-13 06:30N 49°42' W 124°48'510.7
2019-Jul-13 06:00N 49°46' W 124°53'510.7
2019-Jul-13 05:30N 49°50' W 124°59'510.7
2019-Jul-13 05:01N 49°54' W 125°05'611.6
2019-Jul-13 04:30N 49°58' W 125°11'713.8
2019-Jul-13 04:00N 50°05' W 125°16'612.1
2019-Jul-13 03:30N 50°09' W 125°21'714.5
2019-Jul-13 03:00N 50°16' W 125°24'8013.8
2019-Jul-12 21:11N 50°46' W 127°21'715.8
2019-Jul-12 20:45N 50°50' W 127°30'415.8
2019-Jul-12 20:30N 50°52' W 127°35'816.8
2019-Jul-12 20:00N 50°57' W 127°45'714.4
2019-Jul-12 19:30N 51°02' W 127°54'1019.1
2019-Jul-12 19:00N 51°07' W 128°07'918.8
2019-Jul-12 18:30N 51°12' W 128°19'1019.0
2019-Jul-12 18:00N 51°18' W 128°32'919.0
2019-Jul-12 17:30N 51°24' W 128°44'918.9
2019-Jul-12 17:00N 51°30' W 128°55'1019.2
2019-Jul-12 16:30N 51°38' W 129°03'1019.7
2019-Jul-12 16:00N 51°46' W 129°12'1019.2
2019-Jul-12 15:30N 51°54' W 129°21'918.9
2019-Jul-12 15:00N 52°02' W 129°29'4259.1
2019-Jul-12 15:00N 52°00' W 129°24'1327.3 120 / 151021.7 5.4 16.012.418.0
2019-Jul-12 14:30N 52°10' W 129°38'1019.2
2019-Jul-12 14:00N 52°18' W 129°46'1019.5
2019-Jul-12 13:30N 52°27' W 129°54'1019.2
2019-Jul-12 13:00N 52°35' W 130°02'5341.9
2019-Jul-12 13:00N 52°30' W 130°00'   100 / 101022.3 5.4 14.813.017.8
Track history (hours):
 
Tides and Currents Weather Stations Pressure Air Temp Water Temp Dewpoint Dewpoint Depression Visibility Wind Speed Wind Dir Waves Ship Positions

Nieuw Amsterdam

Last reported at 2019-Jul-22 11:00 UTC. Time now 2019-Jul-22 14:34 UTC.
Position N 55°36' W 134°18'.

Length 285 m; draft 8 m.

Type: Passenger vessel. MMSI: 246648000.

Wind from 360 at 12 knots

Barometer 1016.8 mb
Air temperature 13.4 ° C
Visibility: greater than 10.8 NM
Water temperature 18.3 ° C

Date/timePositionNaut miles runAvg speedWind from/ knotsBaromVisibWave heightAir tempDewpointWater temp
2019-Jul-22 11:00N 55°36' W 134°18'6619.6 360 / 121016.810.8 13.4 18.3
2019-Jul-22 07:38N 54°44' W 133°08'319.7
2019-Jul-22 07:30N 54°42' W 133°04'1019.7
2019-Jul-22 07:00N 54°35' W 132°52'1020.0
2019-Jul-22 06:30N 54°29' W 132°39'1019.6
2019-Jul-22 06:00N 54°27' W 132°23'1019.7
2019-Jul-22 05:30N 54°27' W 132°06'1020.0
2019-Jul-22 05:00N 54°26' W 131°49'1019.8
2019-Jul-22 04:30N 54°26' W 131°32'1020.2
2019-Jul-22 04:00N 54°25' W 131°14'3280.5
2019-Jul-22 04:00N 54°24' W 131°18'1122.8 320 / 31017.410.8 15.5 18.4
2019-Jul-22 03:30N 54°21' W 130°60'611.2
2019-Jul-22 03:00N 54°15' W 131°02'1020.1
2019-Jul-22 02:30N 54°05' W 131°01'1020.5
2019-Jul-22 02:00N 53°55' W 130°56'1020.4
2019-Jul-22 01:31N 53°48' W 130°44'1020.7
2019-Jul-22 01:01N 53°41' W 130°31'1121.1
2019-Jul-22 00:30N 53°35' W 130°16'3824.9
2019-Jul-21 23:00N 53°06' W 129°36'711.9 080 / 81017.710.8 14.9 17.5
2019-Jul-21 22:24N 53°00' W 129°29'921.6
2019-Jul-21 22:00N 52°54' W 129°19'1021.5
2019-Jul-21 21:31N 52°46' W 129°08'1222.0
2019-Jul-21 20:59N 52°38' W 128°54'1021.0
2019-Jul-21 20:31N 52°28' W 128°51'1121.3
2019-Jul-21 20:00N 52°17' W 128°49'1021.0
2019-Jul-21 19:31N 52°07' W 128°45'1121.5
2019-Jul-21 19:01N 51°57' W 128°42'1121.3
2019-Jul-21 18:30N 51°47' W 128°37'1121.3
2019-Jul-21 18:01N 51°36' W 128°32'1121.1
2019-Jul-21 17:31N 51°26' W 128°33'1019.3
2019-Jul-21 17:01N 51°16' W 128°28'1121.6
2019-Jul-21 16:31N 51°10' W 128°14'1121.4
2019-Jul-21 16:01N 51°04' W 127°60'1121.7
2019-Jul-21 15:31N 50°58' W 127°46'1121.2
2019-Jul-21 15:00N 50°52' W 127°33'1221.9
2019-Jul-21 14:29N 50°46' W 127°16'1735.9
2019-Jul-21 14:00N 50°36' W 126°54'7181.0 150 / 21020.7 5.4 15.0 18.0
2019-Jul-21 13:57N 50°42' W 126°59'1919.9
2019-Jul-21 13:00N 50°30' W 126°36'3218.7 050 / 31020.8 5.4 11.6 17.0
2019-Jul-21 11:17N 50°23' W 125°47'919.0
2019-Jul-21 10:50N 50°22' W 125°34'616.3
2019-Jul-21 10:28N 50°20' W 125°25'817.3
2019-Jul-21 10:00N 50°12' W 125°22'612.7
2019-Jul-21 09:30N 50°06' W 125°18'713.4
2019-Jul-21 09:00N 50°00' W 125°13'510.8
2019-Jul-21 08:30N 49°56' W 125°07'510.6
2019-Jul-21 08:00N 49°53' W 125°01'510.4
2019-Jul-21 07:30N 49°49' W 124°55'510.5
2019-Jul-21 07:00N 49°45' W 124°50'510.6
2019-Jul-21 06:30N 49°42' W 124°44'510.5
2019-Jul-21 06:00N 49°38' W 124°39'510.6
2019-Jul-21 05:30N 49°33' W 124°34'510.5
2019-Jul-21 05:00N 49°29' W 124°29'510.4
2019-Jul-21 04:30N 49°27' W 124°22'510.4
2019-Jul-21 04:00N 49°24' W 124°15'510.2
2019-Jul-21 03:30N 49°23' W 124°07'510.4
2019-Jul-21 03:00N 49°22' W 123°59'510.3
2019-Jul-21 02:30N 49°21' W 123°51'510.2
2019-Jul-21 02:00N 49°20' W 123°44'510.5
2019-Jul-21 01:30N 49°19' W 123°36'510.6
2019-Jul-21 01:00N 49°19' W 123°28'510.6
2019-Jul-21 00:30N 49°19' W 123°19'510.9
2019-Jul-21 00:00N 49°19' W 123°11'3 6.8
2019-Jul-20 23:30N 49°17' W 123°07'0 0.1
2019-Jul-20 22:58N 49°17' W 123°07'0 0.0
2019-Jul-20 22:28N 49°17' W 123°07'0 0.0
2019-Jul-20 21:58N 49°17' W 123°07'0 0.0
2019-Jul-20 21:25N 49°17' W 123°07'0 0.0
2019-Jul-20 20:58N 49°17' W 123°07'0 0.0
2019-Jul-20 20:28N 49°17' W 123°07'0 0.0
2019-Jul-20 19:58N 49°17' W 123°07'0 0.0
2019-Jul-20 19:28N 49°17' W 123°07'0 0.0
2019-Jul-20 18:58N 49°17' W 123°07'0 0.0
2019-Jul-20 18:28N 49°17' W 123°07'0 0.0
2019-Jul-20 17:58N 49°17' W 123°07'0 0.0
2019-Jul-20 17:28N 49°17' W 123°07'0 0.0
2019-Jul-20 16:58N 49°17' W 123°07'0 0.0
2019-Jul-20 16:29N 49°17' W 123°07'0 0.0
2019-Jul-20 15:58N 49°17' W 123°07'0 0.0
2019-Jul-20 15:28N 49°17' W 123°07'0 0.0
2019-Jul-20 15:00N 49°17' W 123°07'0 0.0
2019-Jul-20 14:27N 49°17' W 123°07'0 0.0
2019-Jul-20 14:00N 49°17' W 123°07'0 1.0
2019-Jul-20 13:30N 49°18' W 123°06'4 8.3
2019-Jul-20 13:00N 49°19' W 123°12'510.2
2019-Jul-20 12:30N 49°18' W 123°20'510.0
2019-Jul-20 12:00N 49°19' W 123°28'7451.1
2019-Jul-20 12:00N 49°18' W 123°18'1123.5 030 / 101023.7 5.4 15.0 20.0
2019-Jul-20 11:30N 49°19' W 123°35'5 9.7
2019-Jul-20 11:00N 49°19' W 123°43'5 9.7
2019-Jul-20 10:30N 49°20' W 123°50'5 9.7
2019-Jul-20 10:00N 49°22' W 123°57'5 9.7
2019-Jul-20 09:30N 49°23' W 124°05'5 9.7
2019-Jul-20 09:00N 49°24' W 124°12'5 9.8
2019-Jul-20 08:30N 49°26' W 124°19'5 9.8
2019-Jul-20 08:00N 49°28' W 124°26'5 9.7
2019-Jul-20 07:30N 49°31' W 124°31'5 9.7
2019-Jul-20 07:00N 49°35' W 124°36'5 9.8
2019-Jul-20 06:30N 49°39' W 124°41'5 9.8
2019-Jul-20 06:00N 49°42' W 124°46'5 9.8
2019-Jul-20 05:30N 49°46' W 124°51'5 9.7
2019-Jul-20 05:00N 49°49' W 124°57'5 9.8
2019-Jul-20 04:30N 49°53' W 125°02'510.3
2019-Jul-20 04:00N 49°56' W 125°08'611.9
2019-Jul-20 03:30N 50°01' W 125°13'612.9
2019-Jul-20 03:00N 50°07' W 125°19'612.8
2019-Jul-20 02:31N 50°13' W 125°22'815.3
2019-Jul-20 02:01N 50°20' W 125°26'8115.7
2019-Jul-19 20:51N 50°48' W 127°25'719.5
2019-Jul-19 20:30N 50°52' W 127°33'918.5
2019-Jul-19 20:00N 50°57' W 127°45'713.1
2019-Jul-19 19:30N 51°01' W 127°54'918.9
2019-Jul-19 19:00N 51°06' W 128°06'918.4
2019-Jul-19 18:31N 51°12' W 128°18'918.4
2019-Jul-19 18:00N 51°17' W 128°30'918.7
2019-Jul-19 17:31N 51°23' W 128°42'918.3
2019-Jul-19 17:00N 51°29' W 128°53'816.5
2019-Jul-19 16:30N 51°36' W 129°01'815.9
2019-Jul-19 16:00N 51°42' W 129°08'168.3
2019-Jul-19 16:00N 51°42' W 129°06'1021.5 150 / 81024.010.8 15.5 18.0
2019-Jul-19 15:30N 51°50' W 129°16'1019.1
2019-Jul-19 15:01N 51°58' W 129°25'4216.9
2019-Jul-19 15:00N 52°00' W 129°30'714.4 110 / 81023.510.8 14.0 18.0
2019-Jul-19 14:30N 52°07' W 129°34'7919.6
2019-Jul-19 10:28N 53°16' W 130°38'919.4
2019-Jul-19 10:00N 53°23' W 130°45'1018.6
2019-Jul-19 09:27N 53°33' W 130°51'818.9
2019-Jul-19 09:01N 53°41' W 130°54'918.6
2019-Jul-19 08:30N 53°50' W 130°57'918.8
2019-Jul-19 08:00N 53°60' W 130°59'1019.3
2019-Jul-19 07:30N 54°09' W 131°01'1019.3
2019-Jul-19 07:00N 54°19' W 131°04'918.6
2019-Jul-19 06:30N 54°27' W 131°11'917.0
2019-Jul-19 06:00N 54°36' W 131°12'516.8 250 / 111017.210.8 14.1 18.5
2019-Jul-19 05:41N 54°41' W 131°14'718.6
2019-Jul-19 05:19N 54°48' W 131°11'2118.3
2019-Jul-19 04:11N 55°08' W 131°10'168 7.9
2019-Jul-18 07:00N 56°24' W 135°36'2120.6 300 / 121003.8 5.4 13.1 18.1
2019-Jul-18 06:00N 56°42' W 135°54'1615.5 290 / 101003.1 5.4 14.1 18.5
2019-Jul-18 05:00N 56°54' W 136°12'8418.4 290 / 101002.510.8 14.1 16.8
2019-Jul-18 00:26N 58°18' W 136°17'717.2
2019-Jul-18 00:01N 58°20' W 136°04'713.0
2019-Jul-17 23:30N 58°26' W 135°59'510.3
2019-Jul-17 23:00N 58°31' W 136°04'714.3
2019-Jul-17 22:31N 58°38' W 136°06'816.3
2019-Jul-17 22:01N 58°44' W 136°17'816.3
2019-Jul-17 21:31N 58°49' W 136°29'5 1.0
2019-Jul-17 16:07N 58°46' W 136°21'317.2
2019-Jul-17 15:57N 58°44' W 136°16'717.0
2019-Jul-17 15:30N 58°38' W 136°07'714.7
2019-Jul-17 15:00N 58°31' W 136°04'5 9.3
2019-Jul-17 14:30N 58°27' W 136°01'4 8.4
2019-Jul-17 14:01N 58°23' W 135°57'5 9.8
2019-Jul-17 13:30N 58°19' W 135°52'713.0
2019-Jul-17 13:00N 58°17' W 135°40'712.8
2019-Jul-17 12:29N 58°15' W 135°28'917.9
2019-Jul-17 12:00N 58°12' W 135°12'24 8.1 300 / 101000.0 13.2 16.6
2019-Jul-17 09:00N 58°36' W 135°06'104 4.7 340 / 111002.2 14.4 17.0
2019-Jul-16 11:00N 56°54' W 134°24'109 3.9 140 / 101012.5 14.8 18.2
2019-Jul-15 07:00N 55°06' W 133°54'1818.3 220 / 41019.010.8 14.6 17.9
2019-Jul-15 06:00N 54°54' W 133°30'1818.3 300 / 41018.910.8 13.7 16.5
2019-Jul-15 05:00N 54°42' W 133°06'1615.9 270 / 51018.610.8 15.0 17.6
2019-Jul-15 04:00N 54°30' W 132°48'1515.2 320 / 91018.610.8 15.3 18.7
2019-Jul-15 03:00N 54°24' W 132°24'2516.9 330 / 91018.610.8 15.9 18.5
2019-Jul-15 01:32N 54°24' W 131°42'018.2
2019-Jul-15 01:30N 54°24' W 131°41'916.8
2019-Jul-15 00:59N 54°22' W 131°26'816.3
2019-Jul-15 00:30N 54°21' W 131°13'816.7
2019-Jul-15 00:00N 54°20' W 130°59'713.4
2019-Jul-14 23:30N 54°13' W 131°02'1019.8
2019-Jul-14 23:00N 54°03' W 131°00'918.8
2019-Jul-14 22:31N 53°55' W 130°54'1019.3
2019-Jul-14 22:00N 53°48' W 130°42'017.3
2019-Jul-14 22:00N 53°48' W 130°42'919.4 180 / 91018.810.8 16.3 18.2
2019-Jul-14 21:30N 53°41' W 130°31'1019.6
2019-Jul-14 21:00N 53°36' W 130°17'6719.6
2019-Jul-14 17:34N 52°44' W 129°05'220.9
2019-Jul-14 17:29N 52°43' W 129°03'1019.7
2019-Jul-14 17:00N 52°36' W 128°53'1019.7
2019-Jul-14 16:30N 52°26' W 128°51'1019.8
2019-Jul-14 16:01N 52°16' W 128°48'1019.7
2019-Jul-14 15:30N 52°06' W 128°45'1020.2
2019-Jul-14 15:00N 51°57' W 128°42'1020.0
2019-Jul-14 14:30N 51°47' W 128°38'1019.8
2019-Jul-14 14:00N 51°38' W 128°32'1019.7
2019-Jul-14 13:30N 51°28' W 128°33'1019.0
2019-Jul-14 13:00N 51°18' W 128°32'1020.0
2019-Jul-14 12:30N 51°12' W 128°19'1020.2
2019-Jul-14 12:00N 51°07' W 128°06'1019.8
2019-Jul-14 11:30N 51°01' W 127°53'1019.7
2019-Jul-14 11:00N 50°55' W 127°40'1020.7
2019-Jul-14 10:30N 50°50' W 127°26'1020.4
2019-Jul-14 10:00N 50°46' W 127°12'1020.3
2019-Jul-14 09:30N 50°42' W 126°57'4816.8
2019-Jul-14 06:39N 50°23' W 125°48'1317.2
2019-Jul-14 05:53N 50°20' W 125°27'513.7
2019-Jul-14 05:30N 50°16' W 125°23'816.9
2019-Jul-14 05:00N 50°08' W 125°21'815.0
2019-Jul-14 04:30N 50°02' W 125°13'917.1
2019-Jul-14 04:00N 49°55' W 125°06'1121.3
2019-Jul-14 03:30N 49°47' W 124°54'1121.3
2019-Jul-14 03:00N 49°39' W 124°43'1121.2
2019-Jul-14 02:31N 49°32' W 124°32'1121.2
2019-Jul-14 02:01N 49°26' W 124°18'1121.6
2019-Jul-14 01:31N 49°22' W 124°02'1121.7
2019-Jul-14 01:01N 49°20' W 123°46'1121.7
2019-Jul-14 00:30N 49°19' W 123°29'1121.4
2019-Jul-14 00:00N 49°19' W 123°13'5 9.1
2019-Jul-13 23:30N 49°17' W 123°07'0 0.5
2019-Jul-13 22:58N 49°17' W 123°07'0 0.0
2019-Jul-13 22:30N 49°17' W 123°07'0 0.0
2019-Jul-13 21:58N 49°17' W 123°07'0 0.0
2019-Jul-13 21:28N 49°17' W 123°07'0 0.0
2019-Jul-13 20:43N 49°17' W 123°07'0 0.0
2019-Jul-13 20:29N 49°17' W 123°07'0 0.0
2019-Jul-13 20:00N 49°17' W 123°07'0 0.0
2019-Jul-13 19:28N 49°17' W 123°07'0 0.0
2019-Jul-13 17:57N 49°17' W 123°07'0 0.0
2019-Jul-13 17:24N 49°17' W 123°07'0 0.0
2019-Jul-13 16:48N 49°17' W 123°07'0 0.0
2019-Jul-13 16:24N 49°17' W 123°07'0 0.0
2019-Jul-13 14:32N 49°17' W 123°07'0 0.0
2019-Jul-13 14:29N 49°17' W 123°07'0 0.0
2019-Jul-13 14:01N 49°17' W 123°07'1 2.4
2019-Jul-13 13:30N 49°18' W 123°07'3 6.8
2019-Jul-13 13:01N 49°19' W 123°13'611.8
2019-Jul-13 12:31N 49°19' W 123°22'612.0
2019-Jul-13 12:01N 49°18' W 123°31'510.8
2019-Jul-13 11:31N 49°18' W 123°39'510.5
2019-Jul-13 11:01N 49°19' W 123°47'510.6
2019-Jul-13 10:30N 49°20' W 123°55'510.5
2019-Jul-13 10:01N 49°22' W 124°03'4249.8
2019-Jul-13 10:00N 49°18' W 124°00'917.9 300 / 101014.6 17.8 19.3
2019-Jul-13 09:31N 49°23' W 124°10'510.5
2019-Jul-13 09:00N 49°25' W 124°18'510.5
2019-Jul-13 08:30N 49°27' W 124°25'510.4
2019-Jul-13 08:00N 49°31' W 124°31'510.4
2019-Jul-13 07:31N 49°35' W 124°37'510.6
2019-Jul-13 07:00N 49°38' W 124°43'510.6
2019-Jul-13 06:30N 49°42' W 124°48'510.7
2019-Jul-13 06:00N 49°46' W 124°53'510.7
2019-Jul-13 05:30N 49°50' W 124°59'510.7
2019-Jul-13 05:01N 49°54' W 125°05'611.6
2019-Jul-13 04:30N 49°58' W 125°11'713.8
2019-Jul-13 04:00N 50°05' W 125°16'612.1
2019-Jul-13 03:30N 50°09' W 125°21'714.5
2019-Jul-13 03:00N 50°16' W 125°24'8013.8
2019-Jul-12 21:11N 50°46' W 127°21'715.8
2019-Jul-12 20:45N 50°50' W 127°30'415.8
2019-Jul-12 20:30N 50°52' W 127°35'816.8
2019-Jul-12 20:00N 50°57' W 127°45'714.4
2019-Jul-12 19:30N 51°02' W 127°54'1019.1
2019-Jul-12 19:00N 51°07' W 128°07'918.8
2019-Jul-12 18:30N 51°12' W 128°19'1019.0
2019-Jul-12 18:00N 51°18' W 128°32'919.0
2019-Jul-12 17:30N 51°24' W 128°44'918.9
2019-Jul-12 17:00N 51°30' W 128°55'1019.2
2019-Jul-12 16:30N 51°38' W 129°03'1019.7
2019-Jul-12 16:00N 51°46' W 129°12'1019.2
2019-Jul-12 15:30N 51°54' W 129°21'918.9
2019-Jul-12 15:00N 52°02' W 129°29'4259.1
2019-Jul-12 15:00N 52°00' W 129°24'1327.3 120 / 151021.7 5.4 16.012.418.0
2019-Jul-12 14:30N 52°10' W 129°38'1019.2
2019-Jul-12 14:00N 52°18' W 129°46'1019.5
2019-Jul-12 13:30N 52°27' W 129°54'1019.2
2019-Jul-12 13:00N 52°35' W 130°02'5341.9
2019-Jul-12 13:00N 52°30' W 130°00'   100 / 101022.3 5.4 14.813.017.8

Dump ship's entire track history